EGPF - Glasgow Airport
Distance from station: E 5mi, 14km
Updated: 12/14/2017 8:20pm
Clear
Clear
 Wind from W
Wind: W 6 mph , 9 km/h
Temperature: 37°F , 3°C
Wind Chill: 32°F , 0°C
Dew Point: 32°F , 0°C
Humidity: 81%
Barometer: 29.41 inHg , 996 hPa
Clouds: Clear
Visibility: 6 miles , 10 km
2017/12/15 04:20 EGPF 150420Z AUTO 26005KT 9999 NCD 03/00 Q0996